Time;durP1;ratioP1;P1;durP2;ratioP2;P2;SDS_P1;SDS_P2;PMS_P1;PMS_P2;Temp;Humidity;BMP_temperature;BMP_pressure;BME280_temperature;BME280_humidity;BME280_pressure;Samples;Min_cycle;Max_cycle;Signal;HPM_P1;HPM_P2
2022/06/11 00:00:47;;;;;;;3.33;2.70;;;14.70;1.00;;;;;;5038528;28;20213;-89
2022/06/11 00:03:16;;;;;;;3.40;2.70;;;14.70;1.00;;;;;;5035565;28;20235;-89
2022/06/11 00:05:43;;;;;;;4.03;3.00;;;14.70;1.00;;;;;;5037954;28;20701;-89
2022/06/11 00:08:11;;;;;;;3.33;3.00;;;14.70;1.00;;;;;;5035295;28;20207;-89
2022/06/11 00:10:38;;;;;;;4.70;3.53;;;14.60;1.00;;;;;;5034349;28;20240;-90
2022/06/11 00:13:06;;;;;;;4.13;3.40;;;14.60;1.00;;;;;;5035491;28;20236;-88
2022/06/11 00:15:34;;;;;;;5.07;3.70;;;14.60;1.00;;;;;;5036303;28;20209;-88
2022/06/11 00:18:01;;;;;;;4.60;3.50;;;14.60;1.00;;;;;;5035246;28;20248;-89
2022/06/11 00:20:30;;;;;;;5.43;3.80;;;14.60;1.00;;;;;;5034795;28;20193;-90
2022/06/11 00:22:58;;;;;;;6.77;5.50;;;14.50;1.00;;;;;;5034793;28;20292;-89
2022/06/11 00:25:25;;;;;;;8.43;6.97;;;14.50;1.00;;;;;;5033731;28;20193;-89
2022/06/11 00:27:52;;;;;;;10.60;8.93;;;14.50;1.00;;;;;;5034281;28;20227;-89
2022/06/11 00:30:19;;;;;;;12.73;8.60;;;14.40;1.00;;;;;;5033274;28;20284;-89
2022/06/11 00:32:47;;;;;;;8.13;6.37;;;14.40;1.00;;;;;;5034660;28;20202;-89
2022/06/11 00:35:15;;;;;;;6.97;5.43;;;14.40;1.00;;;;;;5035462;28;20337;-89
2022/06/11 00:37:44;;;;;;;6.67;5.50;;;14.40;1.00;;;;;;5035149;28;20208;-91
2022/06/11 00:40:16;;;;;;;7.37;5.07;;;14.30;1.00;;;;;;5034238;28;20200;-88
2022/06/11 00:42:43;;;;;;;8.27;4.77;;;14.30;1.00;;;;;;5047321;28;20216;-90
2022/06/11 00:45:18;;;;;;;7.97;5.37;;;14.30;1.00;;;;;;5054934;28;20285;-89
2022/06/11 00:47:48;;;;;;;9.87;4.53;;;14.20;1.00;;;;;;5054448;28;20208;-89
2022/06/11 00:50:21;;;;;;;6.43;4.83;;;14.20;1.00;;;;;;5053710;28;20632;-89
2022/06/11 00:52:50;;;;;;;6.33;4.83;;;14.20;1.00;;;;;;5055096;28;20185;-90
2022/06/11 00:55:21;;;;;;;7.67;4.70;;;14.10;1.00;;;;;;5054622;28;20196;-89
2022/06/11 00:57:51;;;;;;;6.40;4.50;;;14.10;1.00;;;;;;5055946;28;20195;-89
2022/06/11 01:00:22;;;;;;;6.27;4.13;;;14.10;1.00;;;;;;5054436;28;20274;-89
2022/06/11 01:02:49;;;;;;;5.90;4.27;;;14.10;1.00;;;;;;5054140;28;20269;-88
2022/06/11 01:05:20;;;;;;;7.37;4.80;;;14.10;1.00;;;;;;5054361;28;20539;-89
2022/06/11 01:08:16;;;;;;;7.93;4.60;;;14.10;1.00;;;;;;5053670;28;20633;-89
2022/06/11 01:11:04;;;;;;;5.67;4.20;;;14.10;1.00;;;;;;5052733;28;20278;-88
2022/06/11 01:13:38;;;;;;;6.37;4.00;;;14.10;30.50;;;;;;5045158;28;20228;-89
2022/06/11 01:16:11;;;;;;;6.20;4.00;;;14.10;9.40;;;;;;5034265;28;20216;-89
2022/06/11 01:18:47;;;;;;;6.83;4.07;;;14.10;1.00;;;;;;5034578;28;20548;-89
2022/06/11 01:21:26;;;;;;;6.47;4.37;;;14.10;34.40;;;;;;5037171;28;20185;-89
2022/06/11 01:24:29;;;;;;;4.93;4.00;;;14.10;27.20;;;;;;5037613;28;20245;-89
2022/06/11 01:27:29;;;;;;;7.10;4.33;;;14.10;99.90;;;;;;5036914;28;20206;-88
2022/06/11 01:30:00;;;;;;;5.97;4.53;;;14.20;99.90;;;;;;4996067;28;20203;-89
2022/06/11 01:32:36;;;;;;;5.67;4.60;;;14.20;1.00;;;;;;5038172;28;20632;-89
2022/06/11 01:35:13;;;;;;;6.97;4.60;;;14.20;1.40;;;;;;5038368;28;20240;-90
2022/06/11 01:37:46;;;;;;;7.23;4.57;;;14.10;1.00;;;;;;5038299;28;20190;-89
2022/06/11 01:40:21;;;;;;;5.77;4.20;;;14.10;1.00;;;;;;5038534;28;20182;-88
2022/06/11 01:42:52;;;;;;;7.00;4.27;;;14.10;1.00;;;;;;5057620;28;20274;-89
2022/06/11 01:45:24;;;;;;;6.07;4.40;;;14.10;10.50;;;;;;5057624;28;20206;-90
2022/06/11 01:47:51;;;;;;;5.53;4.30;;;14.10;78.10;;;;;;5058469;28;20233;-89
2022/06/11 01:50:23;;;;;;;6.23;4.20;;;14.00;46.30;;;;;;5047072;28;20229;-89
2022/06/11 01:53:08;;;;;;;6.80;4.80;;;14.00;99.90;;;;;;5038928;28;20190;-90
2022/06/11 01:55:47;;;;;;;15.07;7.93;;;14.00;99.90;;;;;;5039111;28;20182;-91
2022/06/11 01:58:29;;;;;;;6.33;5.00;;;14.00;99.90;;;;;;5038612;28;20180;-89
2022/06/11 02:01:06;;;;;;;5.57;4.43;;;14.00;99.90;;;;;;5037837;28;20644;-88
2022/06/11 02:03:39;;;;;;;6.90;4.70;;;14.00;99.90;;;;;;5037149;28;20723;-89
2022/06/11 02:06:19;;;;;;;8.17;4.87;;;14.00;99.90;;;;;;5037818;28;20194;-90
2022/06/11 02:09:06;;;;;;;8.90;5.00;;;14.00;99.90;;;;;;5037550;28;20202;-89
2022/06/11 02:11:38;;;;;;;6.13;4.67;;;13.90;99.90;;;;;;5038369;28;20276;-89
2022/06/11 02:14:24;;;;;;;5.90;5.07;;;13.90;99.90;;;;;;5036557;28;20595;-89
2022/06/11 02:16:56;;;;;;;6.90;4.77;;;13.90;99.90;;;;;;5038282;28;20178;-89
2022/06/11 02:19:30;;;;;;;7.13;4.93;;;13.90;99.90;;;;;;5038443;28;20199;-89
2022/06/11 02:22:01;;;;;;;8.80;4.83;;;13.80;99.90;;;;;;5036472;28;20179;-89
2022/06/11 02:24:31;;;;;;;9.20;5.57;;;13.80;99.90;;;;;;5036192;28;20196;-89
2022/06/11 02:27:02;;;;;;;6.60;4.63;;;13.80;99.90;;;;;;5035505;28;20244;-89
2022/06/11 02:29:32;;;;;;;7.27;5.23;;;13.90;1.00;;;;;;5036406;28;20207;-89
2022/06/11 02:32:06;;;;;;;8.93;5.07;;;13.90;1.00;;;;;;5035416;28;20225;-89
2022/06/11 02:34:33;;;;;;;7.77;5.20;;;13.90;1.00;;;;;;5035928;28;20686;-89
2022/06/11 02:37:05;;;;;;;9.37;5.87;;;13.90;1.00;;;;;;5035925;28;20292;-89
2022/06/11 02:39:35;;;;;;;6.20;5.03;;;13.90;1.00;;;;;;5036388;28;20194;-89
2022/06/11 02:42:02;;;;;;;6.73;4.97;;;13.90;1.00;;;;;;5035544;28;20239;-89
2022/06/11 02:44:29;;;;;;;6.17;4.90;;;13.90;1.00;;;;;;5035499;28;20195;-90
2022/06/11 02:46:56;;;;;;;6.43;4.80;;;13.90;1.00;;;;;;5035987;28;20762;-89
2022/06/11 02:49:27;;;;;;;7.00;5.07;;;14.00;1.00;;;;;;5039450;28;20272;-89
2022/06/11 02:51:57;;;;;;;7.80;5.00;;;14.00;1.00;;;;;;5056646;28;20701;-91
2022/06/11 02:54:25;;;;;;;8.07;5.03;;;14.10;1.00;;;;;;5055896;28;20192;-90
2022/06/11 02:56:54;;;;;;;8.03;4.77;;;14.20;1.00;;;;;;5055531;28;20273;-90
2022/06/11 02:59:23;;;;;;;6.63;4.50;;;14.20;1.00;;;;;;5055459;28;20317;-89
2022/06/11 03:01:52;;;;;;;6.13;4.67;;;14.30;1.00;;;;;;5055264;28;20202;-88
2022/06/11 03:04:19;;;;;;;6.17;4.50;;;14.30;1.00;;;;;;5055132;28;20240;-91
2022/06/11 03:06:48;;;;;;;6.53;4.37;;;14.40;1.00;;;;;;5055372;28;20306;-91
2022/06/11 03:09:22;;;;;;;7.37;4.40;;;14.50;99.90;;;;;;5053498;28;20202;-88
2022/06/11 03:11:50;;;;;;;6.37;4.50;;;14.60;99.90;;;;;;5035214;28;20283;-89
2022/06/11 03:14:17;;;;;;;6.17;5.10;;;14.70;99.90;;;;;;5048100;28;20204;-90
2022/06/11 03:16:45;;;;;;;4.60;4.13;;;14.80;99.90;;;;;;5034396;28;20243;-89
2022/06/11 03:19:13;;;;;;;6.10;4.20;;;14.90;99.90;;;;;;5034505;28;20665;-88
2022/06/11 03:21:41;;;;;;;5.97;4.50;;;14.90;99.90;;;;;;5035737;28;20722;-88
2022/06/11 03:24:09;;;;;;;8.13;4.23;;;15.00;99.90;;;;;;5042077;28;20239;-92
2022/06/11 03:26:36;;;;;;;6.03;4.07;;;15.10;99.90;;;;;;5034768;28;20659;-87
2022/06/11 03:29:04;;;;;;;6.20;4.00;;;15.20;52.50;;;;;;5035235;28;20201;-87
2022/06/11 03:31:31;;;;;;;5.37;4.00;;;15.30;1.00;;;;;;5046459;28;20201;-88
2022/06/11 03:33:58;;;;;;;5.90;3.73;;;15.30;1.00;;;;;;5054291;28;20283;-87
2022/06/11 03:36:26;;;;;;;5.43;4.10;;;15.40;1.00;;;;;;5054818;28;20723;-89
2022/06/11 03:38:52;;;;;;;4.83;4.30;;;15.50;1.00;;;;;;5054830;28;20278;-90
2022/06/11 03:41:22;;;;;;;6.53;4.17;;;15.60;1.00;;;;;;5055740;28;20237;-89
2022/06/11 03:43:49;;;;;;;5.23;3.77;;;15.70;1.00;;;;;;5054481;28;20187;-89
2022/06/11 03:46:18;;;;;;;5.53;3.70;;;16.00;1.00;;;;;;5054374;28;20743;-88
2022/06/11 03:49:01;;;;;;;5.10;3.77;;;16.20;1.00;;;;;;5061734;28;20218;-90
2022/06/11 03:51:28;;;;;;;5.87;3.67;;;16.40;1.00;;;;;;5068159;28;20177;-89
2022/06/11 03:53:56;;;;;;;4.53;3.70;;;16.50;1.00;;;;;;5075423;28;20230;-92
2022/06/11 03:56:25;;;;;;;6.35;3.92;;;16.60;1.00;;;;;;5054730;28;20203;-92
2022/06/11 03:58:53;;;;;;;4.03;3.63;;;16.80;1.00;;;;;;5053586;28;20291;-88
2022/06/11 04:01:21;;;;;;;6.10;3.83;;;17.20;1.00;;;;;;5054188;28;20208;-89
2022/06/11 04:03:51;;;;;;;4.25;3.70;;;17.30;99.90;;;;;;5053642;28;20225;-89
2022/06/11 04:06:21;;;;;;;8.13;3.65;;;17.50;99.90;;;;;;5053572;28;20207;-90
2022/06/11 04:08:48;;;;;;;6.18;4.10;;;17.50;96.40;;;;;;5054504;28;20275;-89
2022/06/11 04:11:16;;;;;;;4.35;3.95;;;17.70;99.90;;;;;;5054684;28;20676;-89
2022/06/11 04:13:45;;;;;;;9.07;4.47;;;18.00;99.90;;;;;;5054767;28;20596;-89
2022/06/11 04:16:24;;;;;;;11.38;4.40;;;18.60;99.90;;;;;;5054314;28;20209;-91
2022/06/11 04:18:52;;;;;;;6.47;3.47;;;19.20;1.00;;;;;;5053832;28;20538;-89
2022/06/11 04:21:19;;;;;;;;;;;20.10;1.00;;;;;;5042100;28;20418;-90
2022/06/11 04:23:49;;;;;;;5.03;2.80;;;20.50;1.00;;;;;;5034233;28;20235;-90
2022/06/11 04:26:21;;;;;;;3.83;3.10;;;21.00;99.90;;;;;;5033725;28;20641;-90
2022/06/11 04:28:50;;;;;;;7.18;3.70;;;21.40;99.90;;;;;;5034414;28;20288;-89
2022/06/11 04:31:18;;;;;;;4.35;3.28;;;21.80;99.90;;;;;;5034074;28;20272;-90
2022/06/11 04:33:47;;;;;;;4.40;3.10;;;22.30;99.90;;;;;;5033772;28;20221;-89
2022/06/11 04:36:16;;;;;;;5.18;2.85;;;22.70;99.90;;;;;;5034827;28;20265;-90
2022/06/11 04:38:43;;;;;;;;;;;22.90;99.90;;;;;;5034996;28;20227;-90
2022/06/11 04:41:10;;;;;;;5.50;2.92;;;23.20;99.90;;;;;;5034632;28;20197;-89
2022/06/11 04:43:37;;;;;;;8.50;3.22;;;23.90;99.90;;;;;;5034932;28;20726;-90
2022/06/11 04:46:07;;;;;;;5.47;3.78;;;24.90;99.90;;;;;;5034730;28;20251;-90
2022/06/11 04:48:34;;;;;;;5.97;3.80;;;25.20;99.90;;;;;;5034445;28;20252;-90
2022/06/11 04:51:02;;;;;;;5.97;3.70;;;25.20;99.90;;;;;;5043003;28;20193;-90
2022/06/11 04:53:29;;;;;;;3.53;3.10;;;25.40;99.90;;;;;;5054843;28;20239;-90
2022/06/11 04:55:56;;;;;;;4.03;3.30;;;25.40;99.90;;;;;;5048165;28;20217;-89
2022/06/11 04:58:23;;;;;;;;;;;26.20;99.90;;;;;;5035626;28;20495;-91
2022/06/11 05:00:51;;;;;;;7.60;2.70;;;27.20;99.90;;;;;;5034523;28;20421;-90
2022/06/11 05:03:20;;;;;;;4.13;2.83;;;28.10;99.90;;;;;;5034060;28;20244;-91
2022/06/11 05:05:47;;;;;;;3.30;2.47;;;29.00;81.80;;;;;;5044504;28;20275;-91
2022/06/11 05:08:18;;;;;;;3.33;2.58;;;28.80;46.70;;;;;;5061104;28;20235;-91
2022/06/11 05:10:46;;;;;;;6.25;2.80;;;28.50;52.40;;;;;;5056411;28;20217;-91
2022/06/11 05:13:14;;;;;;;10.50;3.25;;;28.20;25.70;;;;;;5055401;28;20252;-90
2022/06/11 05:15:46;;;;;;;4.18;2.80;;;27.90;18.90;;;;;;5054033;28;20280;-90
2022/06/11 05:18:14;;;;;;;4.10;3.10;;;27.30;14.40;;;;;;5055525;28;20249;-90
2022/06/11 05:20:44;;;;;;;6.00;4.00;;;26.70;12.80;;;;;;5054822;28;20252;-90
2022/06/11 05:23:11;;;;;;;;;;;26.20;13.30;;;;;;5054768;28;20187;-90
2022/06/11 05:25:38;;;;;;;;;;;25.90;14.00;;;;;;5043437;28;19983;-89
2022/06/11 05:28:06;;;;;;;7.50;3.70;;;25.40;12.80;;;;;;5032598;28;20654;-90
2022/06/11 05:30:33;;;;;;;5.10;3.65;;;25.20;15.20;;;;;;5034004;28;20606;-91
2022/06/11 05:33:01;;;;;;;6.05;2.90;;;25.20;18.10;;;;;;5034095;28;20194;-91
2022/06/11 05:35:31;;;;;;;6.35;3.20;;;25.20;19.30;;;;;;5035181;28;20198;-90
2022/06/11 05:38:06;;;;;;;5.07;3.75;;;25.10;20.20;;;;;;5034842;28;20205;-91
2022/06/11 05:40:38;;;;;;;;;;;25.00;20.80;;;;;;5034887;28;20189;-90
2022/06/11 05:43:05;;;;;;;;;;;24.70;19.90;;;;;;5038234;28;19997;-91
2022/06/11 05:45:36;;;;;;;3.85;3.40;;;24.40;19.10;;;;;;5033845;28;20276;-90
2022/06/11 05:48:10;;;;;;;5.53;3.30;;;24.00;19.50;;;;;;5034305;28;20655;-93
2022/06/11 05:50:42;;;;;;;8.45;3.45;;;23.70;17.10;;;;;;5038974;28;20631;-88
2022/06/11 05:53:14;;;;;;;5.05;3.30;;;23.40;21.50;;;;;;5053465;28;20694;-88
2022/06/11 05:55:43;;;;;;;5.68;3.30;;;23.20;23.70;;;;;;5054690;28;25079;-89
2022/06/11 05:58:13;;;;;;;5.85;4.40;;;23.00;27.00;;;;;;5049461;28;20206;-88
2022/06/11 06:00:41;;;;;;;5.00;3.30;;;22.90;29.90;;;;;;5039314;28;20280;-89
2022/06/11 06:03:08;;;;;;;11.00;7.80;;;22.80;31.30;;;;;;5034596;28;20123;-88
2022/06/11 06:05:35;;;;;;;7.85;5.07;;;22.70;33.00;;;;;;5034843;28;20182;-89
2022/06/11 06:08:02;;;;;;;5.57;4.35;;;22.70;38.70;;;;;;5043098;28;20263;-90
2022/06/11 06:10:30;;;;;;;5.32;4.20;;;22.70;42.70;;;;;;5049847;28;20684;-91
2022/06/11 06:12:57;;;;;;;;;;;22.70;44.10;;;;;;5046149;28;20249;-91
2022/06/11 06:15:25;;;;;;;;;;;22.60;46.40;;;;;;5049778;28;19944;-90
2022/06/11 06:17:53;;;;;;;7.80;4.07;;;22.60;49.10;;;;;;5057048;28;20385;-90
2022/06/11 06:20:23;;;;;;;6.20;4.72;;;22.60;52.40;;;;;;5057934;28;20260;-87
2022/06/11 06:22:50;;;;;;;9.93;7.93;;;22.60;55.60;;;;;;5039527;28;20197;-88
2022/06/11 06:25:20;;;;;;;6.93;4.88;;;22.60;57.40;;;;;;5038635;28;20197;-89
2022/06/11 06:27:49;;;;;;;9.07;5.28;;;22.70;59.90;;;;;;5037108;28;20301;-89
2022/06/11 06:30:15;;;;;;;4.70;4.22;;;22.80;67.40;;;;;;5038346;28;20197;-89
2022/06/11 06:32:42;;;;;;;6.30;3.90;;;22.90;67.00;;;;;;5037989;28;20284;-88
2022/06/11 06:35:09;;;;;;;4.07;3.60;;;23.10;70.70;;;;;;5039436;28;20288;-88
2022/06/11 06:37:36;;;;;;;5.07;3.30;;;23.50;74.00;;;;;;5037696;28;20229;-88
2022/06/11 06:40:04;;;;;;;4.05;3.70;;;23.70;70.40;;;;;;5036117;28;20197;-89
2022/06/11 06:42:31;;;;;;;5.03;3.42;;;23.90;68.80;;;;;;5035639;28;20190;-89
2022/06/11 06:45:00;;;;;;;4.63;3.50;;;24.30;71.60;;;;;;5035943;28;20537;-90
2022/06/11 06:47:27;;;;;;;;;;;24.70;93.10;;;;;;5039135;28;20113;-90
2022/06/11 06:49:54;;;;;;;;;;;25.00;59.40;;;;;;5037646;28;20088;-89
2022/06/11 06:52:21;;;;;;;3.90;2.95;;;25.40;58.30;;;;;;5054602;28;20651;-90
2022/06/11 06:54:48;;;;;;;5.28;3.25;;;25.80;54.90;;;;;;5057830;28;20283;-89
2022/06/11 06:57:16;;;;;;;3.35;2.80;;;26.40;52.20;;;;;;5056980;28;20140;-90
2022/06/11 06:59:43;;;;;;;3.60;2.90;;;26.70;44.60;;;;;;5058089;28;20185;-89
2022/06/11 07:02:11;;;;;;;;;;;26.90;37.50;;;;;;5056253;28;20045;-90
2022/06/11 07:04:38;;;;;;;4.05;2.95;;;27.00;32.40;;;;;;5057184;28;19970;-90
2022/06/11 07:07:05;;;;;;;4.35;3.05;;;27.40;27.80;;;;;;5055268;28;20175;-89
2022/06/11 07:09:32;;;;;;;4.45;2.90;;;28.10;31.10;;;;;;5057769;28;20270;-89
2022/06/11 07:11:59;;;;;;;4.95;2.92;;;28.90;27.00;;;;;;5056829;28;20152;-90
2022/06/11 07:14:26;;;;;;;3.05;2.58;;;29.40;20.00;;;;;;5056525;28;20288;-90
2022/06/11 07:16:56;;;;;;;4.00;2.30;;;29.70;13.50;;;;;;5050004;28;20281;-90
2022/06/11 07:19:30;;;;;;;4.78;2.30;;;30.60;13.20;;;;;;5036433;28;20385;-89
2022/06/11 07:22:03;;;;;;;6.25;2.78;;;31.70;8.20;;;;;;5049308;28;20217;-90
2022/06/11 07:24:35;;;;;;;2.40;2.20;;;32.60;1.30;;;;;;5056188;28;20177;-90
2022/06/11 07:27:05;;;;;;;4.25;2.00;;;33.40;1.00;;;;;;5054731;28;20628;-91
2022/06/11 07:29:37;;;;;;;5.63;2.40;;;34.20;1.00;;;;;;5056853;28;20212;-91
2022/06/11 07:32:09;;;;;;;2.72;2.30;;;35.00;1.00;;;;;;5037860;28;20260;-87
2022/06/11 07:34:38;;;;;;;7.43;3.40;;;35.50;1.00;;;;;;5034215;28;20232;-88
2022/06/11 07:37:05;;;;;;;3.72;2.17;;;36.00;1.00;;;;;;5034014;28;20287;-86
2022/06/11 07:39:32;;;;;;;2.22;1.90;;;36.30;1.00;;;;;;5033719;28;20296;-88
2022/06/11 07:41:59;;;;;;;5.15;2.33;;;36.80;1.00;;;;;;5034085;28;20255;-91
2022/06/11 07:44:26;;;;;;;2.67;2.00;;;37.10;1.00;;;;;;5033768;28;20236;-90
2022/06/11 07:46:54;;;;;;;3.65;1.90;;;37.40;1.00;;;;;;5033519;28;20193;-88
2022/06/11 07:49:21;;;;;;;2.45;2.10;;;37.80;1.00;;;;;;5033420;28;20659;-86
2022/06/11 07:51:49;;;;;;;3.83;1.73;;;38.10;1.00;;;;;;5050489;28;20254;-90
2022/06/11 07:54:16;;;;;;;14.13;12.30;;;38.20;1.00;;;;;;5053443;28;20283;-88
2022/06/11 07:56:43;;;;;;;5.22;3.75;;;38.30;1.00;;;;;;5053666;28;20200;-87
2022/06/11 07:59:10;;;;;;;2.40;1.80;;;38.60;1.00;;;;;;5053219;28;20273;-86
2022/06/11 08:01:37;;;;;;;2.65;1.85;;;38.90;1.00;;;;;;5053372;28;20193;-87
2022/06/11 08:04:05;;;;;;;4.43;1.92;;;39.00;1.00;;;;;;5053363;28;20231;-88
2022/06/11 08:06:32;;;;;;;2.67;1.95;;;39.20;1.00;;;;;;5053420;28;20287;-86
2022/06/11 08:09:01;;;;;;;2.45;2.10;;;39.50;1.00;;;;;;5053473;28;20194;-87
2022/06/11 08:11:28;;;;;;;3.60;2.35;;;39.90;1.00;;;;;;5053286;28;20765;-86
2022/06/11 08:13:55;;;;;;;9.45;5.80;;;40.30;1.00;;;;;;5052887;28;20236;-87
2022/06/11 08:16:22;;;;;;;6.07;5.53;;;40.30;1.00;;;;;;5053735;28;20208;-89
2022/06/11 08:18:48;;;;;;;8.02;7.32;;;40.30;1.00;;;;;;5053528;28;20263;-86
2022/06/11 08:21:15;;;;;;;3.80;2.38;;;40.40;1.00;;;;;;5051411;28;20220;-87
2022/06/11 08:23:42;;;;;;;7.60;6.82;;;40.40;1.00;;;;;;5054691;28;20693;-86
2022/06/11 08:26:11;;;;;;;9.85;2.67;;;40.40;1.00;;;;;;5055122;28;20204;-87
2022/06/11 08:28:38;;;;;;;14.07;12.60;;;40.70;1.00;;;;;;5054219;28;20196;-87
2022/06/11 08:31:05;;;;;;;4.70;2.67;;;40.80;1.00;;;;;;5054669;28;20203;-87
2022/06/11 08:33:33;;;;;;;5.72;3.55;;;40.80;1.00;;;;;;5052807;28;20697;-90
2022/06/11 08:36:00;;;;;;;2.22;1.60;;;41.00;1.00;;;;;;5052941;28;20201;-90
2022/06/11 08:38:27;;;;;;;13.75;9.27;;;40.90;1.00;;;;;;5052837;28;20211;-86
2022/06/11 08:40:55;;;;;;;33.92;17.55;;;40.90;1.00;;;;;;5052916;28;20228;-86
2022/06/11 08:43:27;;;;;;;5.43;2.40;;;40.80;1.00;;;;;;5052952;28;20279;-86
2022/06/11 08:45:57;;;;;;;3.67;1.75;;;40.90;1.00;;;;;;5052991;28;20269;-88
2022/06/11 08:48:36;;;;;;;5.88;4.50;;;41.20;1.00;;;;;;5052589;28;20279;-88
2022/06/11 08:51:10;;;;;;;4.40;3.17;;;41.30;1.00;;;;;;5052088;28;20183;-87
2022/06/11 08:53:38;;;;;;;5.70;3.45;;;41.20;1.00;;;;;;5052813;28;20185;-86
2022/06/11 08:56:11;;;;;;;12.13;8.07;;;41.20;1.00;;;;;;5034472;28;20230;-86
2022/06/11 08:58:56;;;;;;;11.50;8.00;;;41.00;1.00;;;;;;5032630;28;20236;-89
2022/06/11 09:01:29;;;;;;;8.85;3.63;;;40.90;1.00;;;;;;5032937;28;20213;-88
2022/06/11 09:04:14;;;;;;;7.65;1.70;;;40.90;1.00;;;;;;5032441;28;20231;-87
2022/06/11 09:07:00;;;;;;;5.80;3.22;;;40.80;1.00;;;;;;5032900;28;20196;-87
2022/06/11 09:09:39;;;;;;;33.83;16.23;;;40.70;1.00;;;;;;5032541;28;20177;-86
2022/06/11 09:12:27;;;;;;;16.40;9.77;;;40.50;1.00;;;;;;5032358;28;20196;-85
2022/06/11 09:15:16;;;;;;;3.20;1.63;;;40.60;1.00;;;;;;5032810;28;20223;-87
2022/06/11 09:18:15;;;;;;;7.70;1.52;;;40.80;1.00;;;;;;5032574;28;20193;-87
2022/06/11 09:20:52;;;;;;;4.53;1.13;;;40.70;1.00;;;;;;5039862;28;20241;-87
2022/06/11 09:23:45;;;;;;;3.13;1.38;;;40.70;1.00;;;;;;5052706;28;20208;-86
2022/06/11 09:26:22;;;;;;;6.68;2.85;;;40.40;1.00;;;;;;5052161;28;20223;-86
2022/06/11 09:28:59;;;;;;;8.00;4.20;;;40.00;1.00;;;;;;5052296;28;20541;-88
2022/06/11 09:31:37;;;;;;;5.90;3.00;;;39.40;1.00;;;;;;5052359;28;20180;-87
2022/06/11 09:34:10;;;;;;;3.75;2.05;;;38.70;1.00;;;;;;5052376;28;20189;-88
2022/06/11 09:36:40;;;;;;;4.25;1.70;;;38.30;1.00;;;;;;5052174;28;20263;-87
2022/06/11 09:39:17;;;;;;;3.90;1.70;;;37.90;1.00;;;;;;5052081;28;20223;-89
2022/06/11 09:41:52;;;;;;;3.25;2.40;;;37.30;1.00;;;;;;5054317;28;20639;-89
2022/06/11 09:44:31;;;;;;;3.65;2.15;;;36.50;1.00;;;;;;5055957;28;20184;-89
2022/06/11 09:47:06;;;;;;;4.43;2.75;;;36.00;1.00;;;;;;5055990;28;20701;-88
2022/06/11 09:49:39;;;;;;;4.13;2.08;;;35.60;1.00;;;;;;5055736;28;20677;-88
2022/06/11 09:52:15;;;;;;;2.00;1.50;;;35.40;1.00;;;;;;5036202;28;20597;-87
2022/06/11 09:54:54;;;;;;;2.97;1.70;;;35.10;1.00;;;;;;5036058;28;20280;-89
2022/06/11 09:57:34;;;;;;;3.25;2.60;;;35.00;1.00;;;;;;5036214;28;20224;-87
2022/06/11 10:00:10;;;;;;;20.42;4.88;;;34.90;1.00;;;;;;5035888;28;20293;-88
2022/06/11 10:02:45;;;;;;;2.80;1.75;;;34.60;1.00;;;;;;5036051;28;20303;-89
2022/06/11 10:05:19;;;;;;;5.07;1.88;;;34.30;1.00;;;;;;5035999;28;20185;-88
2022/06/11 10:07:51;;;;;;;5.78;1.90;;;34.00;1.00;;;;;;5035920;28;20192;-89
2022/06/11 10:10:24;;;;;;;2.75;1.60;;;33.90;1.00;;;;;;5035637;28;20224;-89
2022/06/11 10:12:56;;;;;;;2.35;1.80;;;34.00;1.00;;;;;;5035887;28;20221;-88
2022/06/11 10:15:26;;;;;;;5.15;1.48;;;33.90;1.00;;;;;;5035519;28;20166;-88
2022/06/11 10:18:00;;;;;;;4.28;1.77;;;33.60;1.00;;;;;;5036007;28;20520;-89
2022/06/11 10:20:32;;;;;;;3.17;1.70;;;33.50;1.00;;;;;;5035439;28;20197;-89
2022/06/11 10:23:06;;;;;;;3.63;1.73;;;33.20;1.00;;;;;;5035680;28;20814;-91
2022/06/11 10:25:35;;;;;;;3.45;2.10;;;33.00;1.00;;;;;;5035693;28;20182;-89
2022/06/11 10:28:10;;;;;;;6.07;2.17;;;32.80;1.00;;;;;;5035734;28;20204;-88
2022/06/11 10:30:47;;;;;;;6.38;3.80;;;32.80;1.00;;;;;;5035150;28;20229;-89
2022/06/11 10:33:23;;;;;;;5.40;2.90;;;32.80;1.00;;;;;;5035195;28;20620;-89
2022/06/11 10:35:58;;;;;;;2.95;1.85;;;32.60;1.00;;;;;;5035203;28;20689;-89
2022/06/11 10:38:35;;;;;;;5.20;1.75;;;32.40;1.00;;;;;;5035217;28;20216;-88
2022/06/11 10:41:05;;;;;;;3.90;1.60;;;32.30;1.00;;;;;;5035218;28;20205;-89
2022/06/11 10:43:39;;;;;;;2.97;2.10;;;32.20;1.00;;;;;;5035405;28;20193;-88
2022/06/11 10:46:10;;;;;;;2.38;1.83;;;32.20;1.00;;;;;;5035266;28;20188;-88
2022/06/11 10:48:40;;;;;;;3.30;1.92;;;32.20;1.00;;;;;;5035309;28;20209;-89
2022/06/11 10:51:16;;;;;;;5.63;2.95;;;32.20;1.00;;;;;;5049896;28;20217;-87
2022/06/11 10:53:56;;;;;;;5.72;3.70;;;32.20;1.00;;;;;;5034182;28;20186;-89
2022/06/11 10:56:28;;;;;;;3.33;1.58;;;32.10;1.00;;;;;;5034743;28;20188;-89
2022/06/11 10:59:01;;;;;;;2.05;1.40;;;31.90;1.00;;;;;;5035171;28;20208;-89
2022/06/11 11:01:30;;;;;;;;;;;31.60;1.00;;;;;;5035289;28;20053;-90
2022/06/11 11:04:07;;;;;;;6.40;3.38;;;31.30;1.00;;;;;;5034953;28;20191;-88
2022/06/11 11:06:36;;;;;;;4.13;2.03;;;31.10;1.00;;;;;;5034765;28;20268;-88
2022/06/11 11:09:07;;;;;;;4.50;2.30;;;30.90;1.00;;;;;;5035293;28;20237;-88
2022/06/11 11:11:41;;;;;;;3.63;2.00;;;30.80;1.00;;;;;;5034881;28;20186;-88
2022/06/11 11:14:19;;;;;;;2.70;1.83;;;30.60;1.00;;;;;;5034587;28;20228;-89
2022/06/11 11:16:48;;;;;;;3.20;1.90;;;30.60;1.00;;;;;;5034795;28;20241;-89
2022/06/11 11:19:21;;;;;;;3.53;2.00;;;30.60;1.00;;;;;;5034048;28;20592;-89
2022/06/11 11:21:55;;;;;;;3.72;1.88;;;30.60;1.00;;;;;;5034847;28;20188;-88
2022/06/11 11:24:26;;;;;;;10.45;2.10;;;30.60;1.00;;;;;;5034416;28;20280;-88
2022/06/11 11:26:57;;;;;;;2.65;2.10;;;30.70;1.00;;;;;;5034751;28;20217;-89
2022/06/11 11:29:27;;;;;;;3.22;2.03;;;30.70;1.00;;;;;;5034682;28;20284;-89
2022/06/11 11:31:57;;;;;;;8.38;2.28;;;30.70;1.00;;;;;;5034348;28;20265;-90
2022/06/11 11:34:28;;;;;;;10.32;3.08;;;30.70;1.00;;;;;;5034472;28;20222;-88
2022/06/11 11:37:14;;;;;;;6.82;3.63;;;30.70;1.00;;;;;;5034303;28;20264;-89
2022/06/11 11:39:50;;;;;;;6.15;3.38;;;30.60;1.00;;;;;;5034280;28;20288;-88
2022/06/11 11:42:22;;;;;;;3.00;1.77;;;30.60;1.00;;;;;;5033972;28;20601;-90
2022/06/11 11:44:51;;;;;;;7.50;5.00;;;30.40;1.00;;;;;;5034211;28;20186;-88
2022/06/11 11:47:26;;;;;;;5.35;3.45;;;30.30;1.00;;;;;;5033856;28;20182;-88
2022/06/11 11:49:58;;;;;;;4.38;3.40;;;30.20;1.00;;;;;;5033341;28;20189;-88
2022/06/11 11:52:27;;;;;;;3.92;2.00;;;30.10;1.00;;;;;;5034072;28;20182;-90
2022/06/11 11:55:00;;;;;;;3.08;1.95;;;29.90;1.00;;;;;;5033569;28;20198;-88
2022/06/11 11:57:31;;;;;;;4.47;1.80;;;29.80;1.00;;;;;;5033739;28;20659;-88
2022/06/11 12:00:01;;;;;;;9.82;4.60;;;29.70;1.00;;;;;;5034076;28;20221;-88
2022/06/11 12:02:37;;;;;;;52.67;28.92;;;29.70;1.00;;;;;;5033903;28;20303;-88
2022/06/11 12:05:19;;;;;;;7.57;2.78;;;29.70;1.00;;;;;;5033515;28;20275;-88
2022/06/11 12:07:48;;;;;;;7.78;2.50;;;29.70;1.00;;;;;;5033687;28;20182;-88
2022/06/11 12:10:26;;;;;;;3.50;2.70;;;29.70;1.00;;;;;;5033280;28;20224;-90
2022/06/11 12:12:55;;;;;;;6.50;3.30;;;29.80;1.00;;;;;;5033335;28;20197;-88
2022/06/11 12:15:26;;;;;;;19.42;14.52;;;29.90;1.00;;;;;;5033146;28;20263;-87
2022/06/11 12:17:57;;;;;;;7.30;4.80;;;30.10;1.00;;;;;;5033319;28;20630;-88
2022/06/11 12:20:43;;;;;;;7.60;3.85;;;30.20;1.00;;;;;;5033458;28;20248;-89
2022/06/11 12:23:22;;;;;;;9.32;4.30;;;30.50;1.00;;;;;;5033037;28;20182;-88
2022/06/11 12:25:56;;;;;;;3.47;2.35;;;30.60;1.00;;;;;;5032938;28;20632;-88
2022/06/11 12:28:26;;;;;;;5.40;1.67;;;30.90;1.00;;;;;;5032963;28;20232;-88
2022/06/11 12:30:53;;;;;;;4.32;1.65;;;31.10;1.00;;;;;;5033607;28;20265;-88
2022/06/11 12:33:29;;;;;;;3.88;2.45;;;31.20;1.00;;;;;;5033745;28;20296;-88
2022/06/11 12:42:02;;;;;;;2.17;1.02;;;31.40;1.00;;;;;;5042783;28;20582;-91
2022/06/11 12:44:40;;;;;;;1.55;0.90;;;31.60;1.00;;;;;;5037206;28;20602;-88
2022/06/11 12:47:26;;;;;;;3.30;1.08;;;31.60;1.00;;;;;;5032960;28;20610;-88
2022/06/11 12:50:09;;;;;;;3.22;0.90;;;31.70;1.00;;;;;;5032347;28;20451;-89
2022/06/11 12:52:45;;;;;;;7.60;1.20;;;31.70;1.00;;;;;;5048003;28;20552;-87
2022/06/11 12:55:28;;;;;;;2.45;1.10;;;31.60;1.00;;;;;;5052234;28;20181;-86
2022/06/11 12:58:04;;;;;;;1.75;1.02;;;31.30;1.00;;;;;;5052750;28;20204;-86
2022/06/11 13:00:44;;;;;;;4.80;1.63;;;31.30;1.00;;;;;;5054463;28;20236;-86
2022/06/11 13:04:01;;;;;;;2.33;1.08;;;31.40;1.00;;;;;;5037511;28;20257;-86
2022/06/11 13:06:40;;;;;;;3.42;1.50;;;31.40;1.00;;;;;;4954694;29;20185;-85
2022/06/11 13:09:22;;;;;;;1.15;0.90;;;31.30;1.00;;;;;;5021290;28;20208;-85
2022/06/11 13:12:00;;;;;;;7.72;1.23;;;31.30;1.00;;;;;;5032288;28;20182;-86
2022/06/11 13:14:51;;;;;;;2.15;1.23;;;31.40;1.00;;;;;;5032691;28;20216;-87
2022/06/11 13:17:30;;;;;;;3.03;1.10;;;31.40;1.00;;;;;;5032246;28;20182;-86
2022/06/11 13:20:04;;;;;;;3.90;1.40;;;31.50;1.00;;;;;;5032658;28;20197;-90
2022/06/11 13:22:40;;;;;;;3.35;1.25;;;31.60;1.00;;;;;;5032704;28;20276;-86
2022/06/11 13:25:26;;;;;;;4.80;1.23;;;31.50;1.00;;;;;;5032521;28;20186;-86